Time;durP1;ratioP1;P1;durP2;ratioP2;P2;SDS_P1;SDS_P2;PMS_P1;PMS_P2;Temp;Humidity;BMP_temperature;BMP_pressure;BME280_temperature;BME280_humidity;BME280_pressure;Samples;Min_cycle;Max_cycle;Signal;HPM_P1;HPM_P2
2022/06/09 00:01:48;;;;;;;2.57;1.50;;;16.10;99.90;;;;;;5049462;28;20202;-69
2022/06/09 00:04:39;;;;;;;1.83;1.30;;;16.00;99.90;;;;;;5049387;28;20649;-68
2022/06/09 00:07:08;;;;;;;1.80;1.27;;;15.90;1.00;;;;;;5048484;28;20844;-70
2022/06/09 00:09:44;;;;;;;2.47;1.27;;;15.90;1.00;;;;;;5049378;28;20945;-69
2022/06/09 00:12:10;;;;;;;3.13;1.00;;;15.90;1.00;;;;;;5049424;28;20516;-70
2022/06/09 00:14:37;;;;;;;1.30;0.87;;;15.70;1.00;;;;;;5049808;28;20798;-71
2022/06/09 00:17:03;;;;;;;6.80;1.27;;;15.70;99.90;;;;;;5050623;28;20202;-69
2022/06/09 00:19:29;;;;;;;1.80;1.40;;;15.70;99.90;;;;;;5058872;28;20409;-70
2022/06/09 00:21:55;;;;;;;1.80;1.30;;;15.70;99.90;;;;;;5052656;28;20433;-70
2022/06/09 00:24:21;;;;;;;2.07;1.30;;;15.80;99.90;;;;;;5052676;28;20409;-69
2022/06/09 00:26:47;;;;;;;1.40;1.20;;;15.80;99.90;;;;;;5051835;28;20181;-67
2022/06/09 00:29:13;;;;;;;3.30;1.27;;;15.80;99.90;;;;;;5052565;28;21189;-68
2022/06/09 00:31:39;;;;;;;1.80;1.00;;;15.80;99.90;;;;;;5052942;28;20475;-68
2022/06/09 00:34:05;;;;;;;2.33;1.13;;;15.80;1.00;;;;;;5053176;28;20178;-69
2022/06/09 00:36:31;;;;;;;1.30;1.10;;;15.80;1.00;;;;;;5052224;28;20626;-69
2022/06/09 00:38:58;;;;;;;2.07;1.00;;;15.80;1.00;;;;;;5053998;28;20198;-68
2022/06/09 00:41:25;;;;;;;1.90;1.40;;;15.80;1.00;;;;;;5077118;22;20456;-70
2022/06/09 00:43:51;;;;;;;3.13;1.30;;;15.90;1.00;;;;;;5053059;28;20437;-66
2022/06/09 00:46:21;;;;;;;4.73;1.43;;;15.80;1.00;;;;;;5052305;28;21122;-66
2022/06/09 00:49:01;;;;;;;1.37;1.17;;;15.80;1.00;;;;;;5051655;28;20167;-66
2022/06/09 00:51:33;;;;;;;1.47;1.00;;;15.90;99.90;;;;;;5050370;28;20445;-66
2022/06/09 00:54:12;;;;;;;2.07;0.93;;;16.00;99.90;;;;;;5051831;28;20416;-66
2022/06/09 00:56:45;;;;;;;2.00;1.20;;;16.00;99.90;;;;;;5052983;28;20459;-70
2022/06/09 00:59:16;;;;;;;1.70;1.20;;;15.90;99.90;;;;;;5053350;28;20402;-67
2022/06/09 01:01:42;;;;;;;1.37;1.03;;;15.90;99.90;;;;;;5034102;28;20934;-66
2022/06/09 01:04:11;;;;;;;2.17;1.57;;;15.90;99.90;;;;;;5033910;28;20498;-66
2022/06/09 01:06:53;;;;;;;2.57;1.50;;;15.80;1.00;;;;;;5034971;28;20406;-67
2022/06/09 01:09:22;;;;;;;1.37;1.23;;;15.80;99.90;;;;;;5035472;28;20573;-68
2022/06/09 01:11:50;;;;;;;1.77;1.30;;;15.70;1.00;;;;;;5036096;28;20433;-67
2022/06/09 01:14:20;;;;;;;3.00;1.20;;;15.90;1.00;;;;;;5036131;28;20421;-65
2022/06/09 01:16:49;;;;;;;4.13;1.40;;;16.00;99.90;;;;;;5031957;28;20437;-65
2022/06/09 01:19:39;;;;;;;2.63;1.30;;;15.90;99.90;;;;;;5032162;28;20407;-66
2022/06/09 01:22:39;;;;;;;2.00;1.40;;;15.90;99.90;;;;;;5031558;28;20418;-68
2022/06/09 01:25:46;;;;;;;1.70;1.20;;;15.90;99.90;;;;;;5032070;28;20402;-66
2022/06/09 01:28:21;;;;;;;2.90;1.57;;;15.90;99.90;;;;;;5031165;28;20437;-69
2022/06/09 01:30:59;;;;;;;1.43;1.10;;;15.90;1.00;;;;;;5031638;28;20401;-68
2022/06/09 01:33:43;;;;;;;1.70;1.40;;;15.80;1.00;;;;;;5032007;28;20417;-68
2022/06/09 01:36:18;;;;;;;2.50;1.30;;;15.80;1.00;;;;;;5031886;28;20446;-66
2022/06/09 01:38:53;;;;;;;2.07;1.40;;;15.90;1.00;;;;;;5031407;28;20448;-66
2022/06/09 01:41:21;;;;;;;1.90;1.07;;;15.90;1.00;;;;;;5031318;28;20472;-69
2022/06/09 01:43:49;;;;;;;1.60;1.20;;;16.00;99.90;;;;;;5031797;28;20401;-67
2022/06/09 01:46:34;;;;;;;3.50;1.67;;;15.90;99.90;;;;;;5031452;28;20402;-67
2022/06/09 01:49:06;;;;;;;3.10;1.20;;;15.90;99.90;;;;;;5030875;28;20534;-71
2022/06/09 01:51:35;;;;;;;1.50;1.40;;;15.90;99.90;;;;;;5032917;28;20450;-66
2022/06/09 01:54:10;;;;;;;4.93;1.67;;;15.80;99.90;;;;;;5051257;28;20406;-66
2022/06/09 01:56:43;;;;;;;2.23;1.37;;;15.70;1.00;;;;;;5051681;28;20478;-66
2022/06/09 01:59:20;;;;;;;1.90;1.33;;;15.80;1.00;;;;;;5051390;28;20497;-66
2022/06/09 02:02:16;;;;;;;3.07;1.50;;;15.70;1.00;;;;;;5012326;28;20419;-67
2022/06/09 02:04:57;;;;;;;1.30;1.20;;;15.70;1.00;;;;;;5015100;28;20795;-66
2022/06/09 02:07:26;;;;;;;1.40;1.00;;;15.60;99.90;;;;;;5015175;28;20403;-70
2022/06/09 02:09:53;;;;;;;3.00;1.60;;;15.60;99.90;;;;;;5014678;28;20454;-66
2022/06/09 02:12:24;;;;;;;7.67;1.90;;;15.60;99.90;;;;;;5015787;28;20542;-70
2022/06/09 02:14:53;;;;;;;1.53;1.30;;;15.60;99.90;;;;;;5015483;28;20399;-66
2022/06/09 02:17:19;;;;;;;1.60;1.30;;;15.60;1.00;;;;;;5015086;28;20772;-70
2022/06/09 02:19:49;;;;;;;8.77;1.67;;;15.50;1.00;;;;;;5016552;28;20465;-70
2022/06/09 02:22:15;;;;;;;5.13;2.20;;;15.50;1.00;;;;;;5012044;28;20192;-67
2022/06/09 02:24:41;;;;;;;2.77;1.67;;;15.40;99.90;;;;;;5010801;28;20430;-67
2022/06/09 02:27:07;;;;;;;4.23;1.87;;;15.40;99.90;;;;;;5010183;28;20535;-66
2022/06/09 02:29:33;;;;;;;11.53;2.90;;;15.50;99.90;;;;;;5010318;28;20172;-66
2022/06/09 02:31:59;;;;;;;5.73;1.83;;;15.40;99.90;;;;;;5010135;28;20427;-65
2022/06/09 02:34:25;;;;;;;1.83;1.10;;;15.50;1.00;;;;;;5010821;28;20403;-70
2022/06/09 02:36:51;;;;;;;4.90;2.57;;;15.50;1.00;;;;;;5010001;28;20447;-70
2022/06/09 02:39:17;;;;;;;2.63;1.40;;;15.60;1.00;;;;;;5008667;28;20168;-70
2022/06/09 02:41:43;;;;;;;3.37;1.30;;;15.70;1.00;;;;;;5049823;28;20202;-70
2022/06/09 02:44:08;;;;;;;2.43;1.50;;;15.70;1.00;;;;;;5050101;28;20156;-69
2022/06/09 02:46:34;;;;;;;1.70;1.30;;;15.70;99.90;;;;;;5049716;28;20171;-70
2022/06/09 02:49:00;;;;;;;7.03;1.77;;;15.60;99.90;;;;;;5049274;28;20178;-70
2022/06/09 02:51:34;;;;;;;2.87;1.20;;;15.60;99.90;;;;;;5037258;28;20913;-70
2022/06/09 02:54:02;;;;;;;1.80;1.27;;;15.60;1.00;;;;;;5049688;28;20159;-70
2022/06/09 02:56:29;;;;;;;2.83;1.40;;;15.50;99.90;;;;;;5049936;28;20881;-67
2022/06/09 02:58:56;;;;;;;3.40;1.80;;;15.50;1.00;;;;;;5049126;28;20409;-69
2022/06/09 03:01:24;;;;;;;3.40;1.40;;;15.50;1.00;;;;;;5031892;28;20415;-71
2022/06/09 03:03:50;;;;;;;5.00;1.83;;;15.50;99.90;;;;;;5030487;28;20426;-70
2022/06/09 03:06:16;;;;;;;2.23;1.60;;;15.50;99.90;;;;;;5029341;28;20407;-69
2022/06/09 03:08:42;;;;;;;5.20;1.97;;;15.40;1.00;;;;;;5028361;28;20489;-70
2022/06/09 03:11:10;;;;;;;12.00;2.83;;;15.50;1.00;;;;;;5029508;28;20282;-69
2022/06/09 03:13:37;;;;;;;10.60;3.50;;;15.50;1.00;;;;;;5029701;28;20411;-69
2022/06/09 03:16:03;;;;;;;12.60;3.27;;;15.40;1.00;;;;;;5027897;28;20986;-71
2022/06/09 03:18:29;;;;;;;18.60;4.27;;;15.40;43.70;;;;;;5028675;28;20517;-67
2022/06/09 03:20:55;;;;;;;8.57;4.80;;;15.40;99.90;;;;;;5027450;28;20493;-71
2022/06/09 03:23:20;;;;;;;4.60;3.60;;;15.40;1.00;;;;;;5028806;28;20183;-70
2022/06/09 03:25:46;;;;;;;8.33;3.43;;;15.40;1.00;;;;;;5028345;28;20559;-71
2022/06/09 03:28:12;;;;;;;4.03;3.37;;;15.40;99.90;;;;;;5028717;28;20176;-70
2022/06/09 03:30:37;;;;;;;4.40;3.57;;;15.40;1.00;;;;;;5029212;28;20257;-70
2022/06/09 03:33:03;;;;;;;2.20;1.30;;;15.40;1.00;;;;;;5029321;28;20191;-70
2022/06/09 03:35:29;;;;;;;6.97;3.07;;;15.40;1.00;;;;;;5028914;28;20202;-71
2022/06/09 03:37:56;;;;;;;4.17;2.23;;;15.40;99.90;;;;;;5028390;28;20176;-70
2022/06/09 03:40:24;;;;;;;2.30;2.10;;;15.40;99.90;;;;;;5028894;28;20409;-68
2022/06/09 03:42:50;;;;;;;2.67;1.33;;;15.30;25.20;;;;;;5029227;28;21068;-68
2022/06/09 03:45:16;;;;;;;3.37;2.77;;;15.30;99.90;;;;;;5028915;28;21061;-70
2022/06/09 03:47:41;;;;;;;5.67;2.77;;;15.30;1.00;;;;;;5028938;28;20442;-71
2022/06/09 03:50:13;;;;;;;4.53;2.30;;;15.30;1.00;;;;;;5027244;28;20515;-71
2022/06/09 03:52:39;;;;;;;9.20;2.87;;;15.20;53.60;;;;;;5040406;28;20205;-70
2022/06/09 03:55:05;;;;;;;15.43;4.00;;;15.30;99.90;;;;;;5048957;28;20480;-70
2022/06/09 03:57:31;;;;;;;9.90;2.40;;;15.30;99.90;;;;;;5049317;28;20170;-69
2022/06/09 03:59:56;;;;;;;1.70;1.10;;;15.20;1.00;;;;;;5043026;28;20417;-69
2022/06/09 04:02:23;;;;;;;8.10;1.90;;;15.20;1.00;;;;;;5029062;28;20183;-70
2022/06/09 04:04:49;;;;;;;1.50;1.30;;;15.20;1.00;;;;;;5029020;28;20163;-69
2022/06/09 04:07:15;;;;;;;2.67;1.67;;;15.20;1.00;;;;;;5028189;28;20410;-69
2022/06/09 04:09:41;;;;;;;1.63;1.10;;;15.20;99.90;;;;;;5028909;28;20420;-68
2022/06/09 04:12:07;;;;;;;1.90;1.13;;;15.20;99.90;;;;;;5028800;28;20609;-69
2022/06/09 04:14:33;;;;;;;15.63;3.20;;;15.10;99.90;;;;;;5027209;28;20221;-69
2022/06/09 04:16:58;;;;;;;6.87;1.43;;;15.10;1.00;;;;;;5028196;28;20918;-70
2022/06/09 04:19:24;;;;;;;6.43;1.50;;;15.00;1.00;;;;;;5026748;28;20217;-70
2022/06/09 04:21:51;;;;;;;10.57;2.10;;;15.10;99.90;;;;;;5028355;28;20226;-69
2022/06/09 04:24:17;;;;;;;9.23;2.50;;;15.20;1.00;;;;;;5028618;28;20168;-70
2022/06/09 04:26:44;;;;;;;5.43;4.40;;;15.20;99.90;;;;;;5028851;28;20414;-70
2022/06/09 04:29:11;;;;;;;5.10;2.70;;;15.30;1.00;;;;;;5028102;28;20845;-67
2022/06/09 04:31:39;;;;;;;4.23;1.30;;;15.30;1.00;;;;;;5028381;28;20769;-70
2022/06/09 04:34:05;;;;;;;2.00;1.50;;;15.40;99.90;;;;;;5027777;28;20833;-69
2022/06/09 04:36:31;;;;;;;3.23;1.73;;;15.40;99.90;;;;;;5028036;28;20453;-69
2022/06/09 04:38:56;;;;;;;3.70;2.20;;;15.40;99.90;;;;;;5027307;28;20183;-69
2022/06/09 04:41:22;;;;;;;5.53;1.90;;;15.50;99.90;;;;;;5019334;28;20178;-67
2022/06/09 04:43:48;;;;;;;5.20;2.70;;;15.50;1.00;;;;;;5025591;28;20487;-68
2022/06/09 04:46:17;;;;;;;8.80;3.80;;;15.50;99.90;;;;;;5027124;28;20748;-70
2022/06/09 04:48:43;;;;;;;6.90;2.67;;;15.60;99.90;;;;;;5035610;28;20215;-69
2022/06/09 04:51:11;;;;;;;2.47;1.97;;;15.60;1.00;;;;;;5047371;28;20413;-70
2022/06/09 04:53:38;;;;;;;2.00;1.80;;;15.70;1.00;;;;;;5047848;28;20193;-69
2022/06/09 04:56:04;;;;;;;2.13;1.40;;;15.80;1.00;;;;;;5047816;28;20987;-70
2022/06/09 04:58:29;;;;;;;3.57;1.77;;;15.80;99.90;;;;;;5047211;28;20406;-67
2022/06/09 05:00:55;;;;;;;8.33;2.23;;;15.80;99.90;;;;;;5046220;28;20886;-68
2022/06/09 05:03:21;;;;;;;6.33;2.13;;;15.70;99.90;;;;;;5049763;28;20213;-68
2022/06/09 05:05:49;;;;;;;17.40;3.33;;;15.80;91.60;;;;;;5048869;28;20166;-67
2022/06/09 05:08:15;;;;;;;8.53;3.60;;;16.00;1.00;;;;;;5047916;28;20170;-67
2022/06/09 05:10:43;;;;;;;2.60;2.20;;;16.00;1.00;;;;;;5049317;28;20642;-69
2022/06/09 05:13:09;;;;;;;6.17;2.33;;;16.10;1.00;;;;;;5048845;28;20421;-68
2022/06/09 05:15:42;;;;;;;3.97;2.30;;;16.10;1.00;;;;;;5049080;28;20444;-68
2022/06/09 05:18:08;;;;;;;13.00;4.47;;;16.20;1.00;;;;;;5048674;28;20394;-69
2022/06/09 05:20:33;;;;;;;5.03;3.03;;;16.30;99.90;;;;;;5050387;28;20484;-69
2022/06/09 05:22:59;;;;;;;15.83;3.57;;;16.40;99.90;;;;;;5050182;28;20288;-69
2022/06/09 05:25:25;;;;;;;4.00;2.20;;;16.50;99.90;;;;;;5049315;28;20179;-70
2022/06/09 05:27:51;;;;;;;4.87;1.80;;;16.40;99.90;;;;;;5047791;28;20257;-68
2022/06/09 05:30:22;;;;;;;4.60;2.37;;;16.30;99.90;;;;;;5047298;28;20206;-69
2022/06/09 05:32:48;;;;;;;5.03;2.63;;;16.40;99.90;;;;;;5048579;28;20437;-71
2022/06/09 05:35:15;;;;;;;4.20;1.93;;;16.40;99.90;;;;;;5048010;28;20486;-69
2022/06/09 05:45:57;;;;;;;5.20;2.70;;;16.70;99.90;;;;;;5045630;28;20784;-69
2022/06/09 05:48:22;;;;;;;12.60;2.97;;;16.80;70.30;;;;;;5045609;28;20540;-69
2022/06/09 05:50:49;;;;;;;4.20;1.83;;;17.00;3.00;;;;;;5048452;28;20554;-69
2022/06/09 05:53:15;;;;;;;3.77;1.60;;;17.10;1.00;;;;;;5064766;28;20194;-70
2022/06/09 05:55:41;;;;;;;5.90;3.00;;;17.10;1.00;;;;;;5051526;28;20480;-70
2022/06/09 05:58:06;;;;;;;4.93;2.63;;;17.20;1.00;;;;;;5048146;28;20171;-69
2022/06/09 06:00:32;;;;;;;7.67;3.20;;;17.30;1.00;;;;;;5048150;28;20167;-70
2022/06/09 06:02:58;;;;;;;5.60;2.50;;;17.40;1.00;;;;;;5048368;28;20191;-69
2022/06/09 06:08:08;;;;;;;5.00;2.43;;;17.50;1.00;;;;;;5047332;28;20696;-69
2022/06/09 06:10:34;;;;;;;5.67;3.03;;;17.50;1.00;;;;;;5048018;28;20421;-69
2022/06/09 06:13:00;;;;;;;5.30;2.57;;;17.40;1.00;;;;;;5046642;28;20221;-70
2022/06/09 06:15:25;;;;;;;4.37;2.23;;;17.20;1.00;;;;;;5047953;28;20510;-69
2022/06/09 06:17:54;;;;;;;6.80;4.10;;;17.20;1.00;;;;;;5046310;28;20178;-70
2022/06/09 06:20:21;;;;;;;9.87;2.57;;;17.00;1.00;;;;;;5049110;28;20164;-70
2022/06/09 06:22:46;;;;;;;4.43;2.67;;;16.90;1.00;;;;;;5048742;28;20435;-70
2022/06/09 06:25:12;;;;;;;11.73;4.20;;;16.80;90.80;;;;;;5049477;28;20409;-70
2022/06/09 06:27:38;;;;;;;4.60;2.20;;;16.70;1.00;;;;;;5047119;28;20289;-69
2022/06/09 06:30:05;;;;;;;5.40;2.50;;;16.50;1.00;;;;;;5048253;28;20240;-69
2022/06/09 06:32:31;;;;;;;7.90;2.30;;;16.30;1.00;;;;;;5047588;28;20186;-71
2022/06/09 06:34:57;;;;;;;4.03;2.60;;;16.30;1.00;;;;;;5047291;28;20688;-71
2022/06/09 06:37:23;;;;;;;3.70;2.27;;;16.30;1.00;;;;;;5047262;28;20262;-70
2022/06/09 06:39:49;;;;;;;6.10;2.10;;;16.40;99.90;;;;;;5047161;28;20910;-68
2022/06/09 06:42:15;;;;;;;2.80;1.73;;;16.40;99.90;;;;;;5049151;28;20238;-68
2022/06/09 06:44:41;;;;;;;8.27;2.07;;;16.60;89.60;;;;;;5050178;28;20456;-68
2022/06/09 06:47:07;;;;;;;21.00;2.90;;;16.80;1.00;;;;;;5048678;28;20260;-69
2022/06/09 06:49:32;;;;;;;7.10;2.67;;;16.90;1.00;;;;;;5060850;28;20608;-69
2022/06/09 06:51:58;;;;;;;14.43;2.87;;;17.00;1.00;;;;;;5051428;28;20281;-68
2022/06/09 06:54:24;;;;;;;6.67;1.90;;;17.20;1.00;;;;;;5049559;28;20465;-69
2022/06/09 06:56:49;;;;;;;7.43;4.07;;;17.60;1.00;;;;;;5050316;28;20187;-72
2022/06/09 06:59:15;;;;;;;5.47;2.13;;;18.20;1.00;;;;;;5049653;28;20645;-70
2022/06/09 07:01:41;;;;;;;7.90;2.73;;;18.90;99.90;;;;;;5049202;28;20212;-70
2022/06/09 07:04:06;;;;;;;5.87;2.13;;;19.50;99.90;;;;;;5049595;28;20167;-69
2022/06/09 07:06:32;;;;;;;2.80;2.10;;;20.30;99.90;;;;;;5049489;28;20217;-70
2022/06/09 07:08:58;;;;;;;4.90;1.83;;;21.30;99.90;;;;;;5047526;28;20625;-70
2022/06/09 07:11:23;;;;;;;3.60;1.83;;;21.90;99.90;;;;;;5049411;28;20794;-70
2022/06/09 07:13:49;;;;;;;6.07;2.27;;;22.00;99.90;;;;;;5049646;28;20541;-69
2022/06/09 07:16:15;;;;;;;5.43;2.07;;;22.10;99.90;;;;;;5048715;28;20219;-69
2022/06/09 07:18:41;;;;;;;3.40;1.77;;;22.00;99.90;;;;;;5048665;28;20726;-69
2022/06/09 07:21:07;;;;;;;8.73;1.83;;;22.80;99.90;;;;;;5048971;28;20602;-69
2022/06/09 07:23:33;;;;;;;4.77;2.20;;;23.60;99.90;;;;;;5049001;28;20175;-70
2022/06/09 07:26:01;;;;;;;5.23;1.60;;;24.30;99.90;;;;;;5049313;28;20174;-70
2022/06/09 07:28:27;;;;;;;12.37;2.90;;;24.70;99.90;;;;;;5048439;28;20417;-69
2022/06/09 07:30:56;;;;;;;6.27;3.13;;;24.70;99.90;;;;;;5048313;28;20406;-68
2022/06/09 07:33:24;;;;;;;12.43;2.70;;;25.40;99.90;;;;;;5050321;28;20433;-71
2022/06/09 07:35:53;;;;;;;4.80;2.03;;;26.90;99.90;;;;;;5058473;28;20445;-70
2022/06/09 07:38:19;;;;;;;5.40;4.50;;;27.80;99.90;;;;;;5049725;28;20754;-72
2022/06/09 07:40:45;;;;;;;3.87;1.30;;;28.10;99.90;;;;;;5050948;28;20843;-69
2022/06/09 07:43:13;;;;;;;5.80;4.17;;;28.80;99.90;;;;;;5050058;28;20535;-70
2022/06/09 07:45:39;;;;;;;7.23;1.90;;;29.40;99.90;;;;;;5050446;28;20171;-70
2022/06/09 07:48:06;;;;;;;2.20;1.30;;;29.50;99.90;;;;;;5050423;28;20500;-68
2022/06/09 07:50:33;;;;;;;3.07;1.53;;;30.40;99.90;;;;;;5063665;28;20421;-69
2022/06/09 07:52:59;;;;;;;3.60;1.70;;;30.70;99.90;;;;;;5050405;28;20429;-70
2022/06/09 07:55:25;;;;;;;4.77;1.37;;;31.80;99.70;;;;;;5050455;28;20452;-70
2022/06/09 07:57:53;;;;;;;3.40;1.50;;;31.90;91.90;;;;;;5047449;28;20496;-70
2022/06/09 08:00:21;;;;;;;4.37;1.60;;;31.50;78.30;;;;;;5048535;28;20170;-69
2022/06/09 08:02:47;;;;;;;3.73;2.10;;;30.50;66.40;;;;;;5049122;28;20972;-71
2022/06/09 08:05:15;;;;;;;6.93;1.80;;;30.00;57.70;;;;;;5049781;28;20472;-70
2022/06/09 08:07:41;;;;;;;3.40;1.50;;;30.30;53.40;;;;;;5050022;28;20778;-70
2022/06/09 08:10:08;;;;;;;2.70;1.13;;;30.80;48.30;;;;;;5049496;28;20401;-70
2022/06/09 08:12:34;;;;;;;2.90;1.90;;;30.80;43.40;;;;;;5049687;28;20268;-70
2022/06/09 08:15:00;;;;;;;4.80;1.90;;;31.40;38.90;;;;;;5048591;28;20771;-70
2022/06/09 08:17:26;;;;;;;2.23;1.30;;;32.30;34.30;;;;;;5049114;28;20178;-70
2022/06/09 08:19:52;;;;;;;4.33;2.30;;;32.80;28.80;;;;;;5049366;28;20649;-69
2022/06/09 08:22:18;;;;;;;3.93;2.13;;;33.20;23.00;;;;;;5049425;28;20189;-69
2022/06/09 08:24:44;;;;;;;3.42;1.98;;;33.40;18.60;;;;;;5049793;28;20549;-71
2022/06/09 08:27:10;;;;;;;6.10;3.03;;;34.00;14.80;;;;;;5047186;28;20185;-73
2022/06/09 08:29:36;;;;;;;10.60;6.53;;;32.30;8.80;;;;;;5049089;28;20186;-70
2022/06/09 08:32:02;;;;;;;11.10;8.87;;;30.80;5.40;;;;;;5048425;28;20244;-71
2022/06/09 08:34:28;;;;;;;4.00;3.30;;;30.50;4.70;;;;;;5048231;28;20409;-71
2022/06/09 08:36:54;;;;;;;5.43;1.77;;;31.20;4.20;;;;;;5050781;28;20444;-71
2022/06/09 08:39:20;;;;;;;8.77;6.67;;;31.20;2.10;;;;;;5051896;28;20673;-70
2022/06/09 08:41:48;;;;;;;4.97;3.90;;;30.10;1.00;;;;;;5052320;28;20200;-70
2022/06/09 08:44:26;;;;;;;3.30;1.30;;;30.10;1.00;;;;;;5053579;28;20173;-69
2022/06/09 08:47:07;;;;;;;4.63;2.30;;;31.10;1.00;;;;;;5051751;28;20423;-69
2022/06/09 08:50:02;;;;;;;5.03;1.40;;;30.70;3.70;;;;;;5063271;28;20516;-69
2022/06/09 08:52:31;;;;;;;3.30;1.60;;;30.80;1.00;;;;;;5051682;28;20552;-69
2022/06/09 08:54:58;;;;;;;3.20;2.27;;;31.50;1.00;;;;;;5051978;28;20417;-69
2022/06/09 08:57:31;;;;;;;7.20;2.47;;;32.70;1.00;;;;;;5051850;28;20440;-69
2022/06/09 08:59:58;;;;;;;5.27;2.50;;;33.50;1.00;;;;;;5051871;28;20280;-68
2022/06/09 09:02:37;;;;;;;16.17;2.90;;;33.60;1.00;;;;;;5052166;28;20183;-69
2022/06/09 09:05:14;;;;;;;7.50;2.60;;;34.50;1.00;;;;;;5051918;28;20495;-68
2022/06/09 09:07:46;;;;;;;6.47;2.97;;;34.20;1.00;;;;;;5051682;28;20253;-68
2022/06/09 09:10:15;;;;;;;4.05;2.38;;;34.00;1.00;;;;;;5051782;28;20166;-71
2022/06/09 09:12:42;;;;;;;4.97;2.55;;;34.40;1.00;;;;;;5052017;28;20194;-68
2022/06/09 09:15:33;;;;;;;3.83;2.00;;;34.40;1.00;;;;;;5050941;28;20181;-69
2022/06/09 09:18:17;;;;;;;5.53;3.70;;;34.90;1.00;;;;;;5047971;28;20258;-69
2022/06/09 09:21:16;;;;;;;13.55;2.05;;;35.40;1.00;;;;;;5051661;28;20233;-72
2022/06/09 09:23:51;;;;;;;6.20;1.60;;;35.60;1.00;;;;;;5038024;28;20643;-69
2022/06/09 09:27:11;;;;;;;3.63;3.33;;;35.30;1.00;;;;;;5051993;28;20626;-70
2022/06/09 09:30:10;;;;;;;4.60;4.20;;;35.00;1.00;;;;;;5046494;28;20327;-69
2022/06/09 09:32:40;;;;;;;5.07;2.50;;;34.10;1.00;;;;;;5051710;28;20538;-69
2022/06/09 09:35:35;;;;;;;6.00;2.33;;;34.10;1.00;;;;;;5051178;28;20616;-69
2022/06/09 09:38:01;;;;;;;7.82;4.50;;;34.30;1.00;;;;;;5049030;28;20177;-69
2022/06/09 09:40:26;;;;;;;9.25;6.40;;;34.00;1.00;;;;;;5050989;28;20174;-68
2022/06/09 09:42:56;;;;;;;6.80;4.57;;;33.50;1.00;;;;;;5051250;28;20198;-70
2022/06/09 09:45:30;;;;;;;5.35;3.70;;;34.30;1.00;;;;;;5051186;28;20178;-70
2022/06/09 09:47:59;;;;;;;15.32;3.40;;;33.90;1.00;;;;;;5049199;28;20186;-70
2022/06/09 09:50:28;;;;;;;3.45;1.30;;;33.50;1.00;;;;;;5063623;28;20631;-70
2022/06/09 09:53:01;;;;;;;4.33;0.93;;;32.10;1.00;;;;;;5050679;28;20641;-69
2022/06/09 09:55:29;;;;;;;3.53;1.60;;;29.90;1.00;;;;;;5051930;28;20760;-69
2022/06/09 09:58:16;;;;;;;5.00;1.30;;;29.20;1.00;;;;;;5051235;28;20402;-70
2022/06/09 10:00:43;;;;;;;5.50;2.07;;;29.00;1.00;;;;;;5051077;28;20400;-68
2022/06/09 10:09:14;;;;;;;4.23;1.37;;;31.70;1.00;;;;;;5050304;28;20427;-70
2022/06/09 10:11:53;;;;;;;2.60;1.30;;;32.10;1.00;;;;;;5050867;28;20520;-70
2022/06/09 10:14:27;;;;;;;3.97;1.43;;;33.30;1.00;;;;;;5050653;28;20173;-70
2022/06/09 10:16:55;;;;;;;2.50;1.35;;;34.70;1.00;;;;;;5050161;28;20634;-70
2022/06/09 10:19:23;;;;;;;17.95;2.72;;;34.40;1.00;;;;;;5050543;28;20756;-70
2022/06/09 10:21:49;;;;;;;6.33;1.80;;;33.10;1.00;;;;;;5050649;28;20186;-70
2022/06/09 10:24:18;;;;;;;6.47;2.10;;;32.30;1.00;;;;;;5050293;28;20543;-69
2022/06/09 10:26:48;;;;;;;6.13;2.63;;;31.50;1.00;;;;;;5050714;28;20584;-70
2022/06/09 10:29:25;;;;;;;10.90;2.13;;;30.80;1.00;;;;;;5049993;28;20423;-69
2022/06/09 10:32:13;;;;;;;6.30;1.30;;;30.70;1.00;;;;;;5050575;28;20437;-69
2022/06/09 10:35:06;;;;;;;2.00;1.00;;;30.20;1.00;;;;;;5050504;28;20393;-69
2022/06/09 10:37:52;;;;;;;4.53;1.30;;;28.90;1.00;;;;;;5049863;28;20467;-68
2022/06/09 10:40:31;;;;;;;4.90;1.83;;;30.20;1.00;;;;;;5050017;28;20756;-69
2022/06/09 10:43:00;;;;;;;2.10;1.60;;;31.70;1.00;;;;;;5049750;28;20448;-70
2022/06/09 10:45:41;;;;;;;3.30;1.50;;;31.90;1.00;;;;;;5049949;28;20488;-69
2022/06/09 10:57:08;;;;;;;3.50;1.60;;;32.00;1.00;;;;;;5049738;28;20335;-69
2022/06/09 10:59:37;;;;;;;6.90;2.67;;;30.40;1.00;;;;;;5049447;28;20397;-68
2022/06/09 11:02:21;;;;;;;7.13;2.90;;;29.60;1.00;;;;;;5048144;28;20445;-69
2022/06/09 11:04:47;;;;;;;5.20;1.50;;;28.80;1.00;;;;;;5049898;28;20404;-68
2022/06/09 11:07:19;;;;;;;9.20;2.70;;;28.10;1.00;;;;;;5048805;28;20405;-70
2022/06/09 11:09:57;;;;;;;5.17;2.20;;;27.80;1.00;;;;;;5049406;28;20523;-69
2022/06/09 11:12:35;;;;;;;3.40;1.43;;;28.30;1.00;;;;;;5049165;28;20429;-70
2022/06/09 11:15:13;;;;;;;2.57;1.50;;;28.90;1.00;;;;;;5049682;28;20826;-68
2022/06/09 11:18:08;;;;;;;4.40;1.80;;;29.00;1.00;;;;;;5049024;28;20427;-70
2022/06/09 11:20:58;;;;;;;11.83;2.27;;;28.50;1.00;;;;;;5029499;28;20393;-68
2022/06/09 11:23:45;;;;;;;6.73;2.20;;;28.70;1.00;;;;;;5029130;28;20414;-70
2022/06/09 11:26:30;;;;;;;2.47;1.17;;;28.80;1.00;;;;;;5029891;28;21310;-69
2022/06/09 11:29:17;;;;;;;3.43;1.57;;;29.50;1.00;;;;;;5027883;28;20409;-72
2022/06/09 11:31:45;;;;;;;13.40;2.20;;;29.60;1.00;;;;;;5029202;28;20417;-71
2022/06/09 11:34:26;;;;;;;7.80;1.77;;;28.40;1.00;;;;;;5029853;28;20417;-70
2022/06/09 11:37:15;;;;;;;13.63;2.73;;;27.70;1.00;;;;;;5029226;28;20464;-69
2022/06/09 11:40:03;;;;;;;3.37;2.97;;;27.20;1.00;;;;;;5027711;28;20956;-69
2022/06/09 11:42:49;;;;;;;4.17;1.70;;;26.70;1.00;;;;;;5029460;28;20491;-69
2022/06/09 11:45:22;;;;;;;3.17;1.83;;;26.90;1.00;;;;;;5029264;28;20409;-70
2022/06/09 11:47:49;;;;;;;7.90;1.73;;;27.10;1.00;;;;;;5029387;28;20755;-69
2022/06/09 11:50:18;;;;;;;6.57;1.67;;;26.30;1.00;;;;;;5058729;28;20500;-71
2022/06/09 11:52:48;;;;;;;3.30;1.50;;;26.20;1.00;;;;;;5047698;28;20440;-69
2022/06/09 11:56:02;;;;;;;4.63;1.80;;;26.20;1.00;;;;;;5049284;28;20425;-72
2022/06/09 11:58:34;;;;;;;7.73;1.87;;;26.20;1.00;;;;;;5040537;28;20413;-72
2022/06/09 12:01:15;;;;;;;7.73;1.80;;;26.20;1.00;;;;;;5048326;28;20417;-72
2022/06/09 12:04:16;;;;;;;2.03;1.07;;;26.60;1.00;;;;;;5048965;28;20508;-72
2022/06/09 12:07:16;;;;;;;4.70;1.30;;;26.50;1.00;;;;;;5048252;28;20498;-71
2022/06/09 12:10:03;;;;;;;4.03;1.30;;;26.70;1.00;;;;;;5048726;28;20520;-71
2022/06/09 12:12:40;;;;;;;9.60;2.20;;;26.40;1.00;;;;;;5048657;28;20428;-71
2022/06/09 12:15:15;;;;;;;21.13;2.90;;;26.20;1.00;;;;;;5048759;28;20428;-70
2022/06/09 12:18:12;;;;;;;4.10;1.50;;;26.40;1.00;;;;;;5046754;28;20510;-71
2022/06/09 12:20:59;;;;;;;14.90;2.50;;;26.00;1.00;;;;;;5013711;28;20474;-72
2022/06/09 12:23:58;;;;;;;5.63;2.07;;;25.70;1.00;;;;;;5048111;28;20492;-72
2022/06/09 12:26:56;;;;;;;4.70;1.60;;;25.70;1.00;;;;;;5048563;28;20405;-70
2022/06/09 12:29:43;;;;;;;2.47;1.20;;;25.60;1.00;;;;;;5007270;28;20563;-72
2022/06/09 12:32:09;;;;;;;5.63;3.73;;;25.50;1.00;;;;;;5048150;28;20443;-71
2022/06/09 12:34:49;;;;;;;2.40;1.10;;;25.40;1.00;;;;;;5048748;28;20393;-70
2022/06/09 12:37:23;;;;;;;3.80;1.50;;;24.60;1.00;;;;;;5047352;28;20210;-70
2022/06/09 12:40:12;;;;;;;6.47;1.77;;;24.50;1.00;;;;;;5048028;28;20933;-71
2022/06/09 12:42:46;;;;;;;7.70;1.67;;;24.30;1.00;;;;;;5042442;28;20536;-70
2022/06/09 12:45:20;;;;;;;10.40;1.70;;;24.60;1.00;;;;;;5048090;28;20409;-71
2022/06/09 12:47:59;;;;;;;14.87;2.30;;;24.30;1.00;;;;;;5047690;28;20413;-70
2022/06/09 12:50:27;;;;;;;17.17;2.97;;;24.60;1.00;;;;;;5060964;28;20749;-70
2022/06/09 12:52:54;;;;;;;4.47;1.53;;;24.70;1.00;;;;;;5048604;28;20460;-70
2022/06/09 12:55:28;;;;;;;2.27;1.03;;;24.70;1.00;;;;;;5048826;28;20463;-71
2022/06/09 12:58:06;;;;;;;5.27;1.30;;;24.50;1.00;;;;;;5047723;28;20385;-70
2022/06/09 13:00:39;;;;;;;15.47;1.83;;;24.50;1.00;;;;;;5047607;28;20509;-71
2022/06/09 13:03:25;;;;;;;1.97;1.00;;;24.90;1.00;;;;;;5047988;28;20431;-69
2022/06/09 13:05:52;;;;;;;3.93;1.50;;;25.10;1.00;;;;;;5047242;28;20420;-71
2022/06/09 13:08:26;;;;;;;3.30;1.10;;;25.30;1.00;;;;;;5047214;28;20548;-72
2022/06/09 13:11:01;;;;;;;3.93;1.43;;;25.10;1.00;;;;;;5047646;28;20471;-69
2022/06/09 13:13:38;;;;;;;2.70;1.17;;;25.10;1.00;;;;;;5048917;28;20424;-70
2022/06/09 13:16:11;;;;;;;5.53;1.60;;;25.00;1.00;;;;;;5048089;28;20648;-70
2022/06/09 13:18:41;;;;;;;4.27;1.60;;;25.10;1.00;;;;;;5047335;28;20394;-69
2022/06/09 13:21:11;;;;;;;7.80;1.93;;;25.10;1.00;;;;;;5048106;28;20774;-70
2022/06/09 13:23:39;;;;;;;5.83;1.60;;;25.20;1.00;;;;;;5051741;28;20416;-69
2022/06/09 13:26:06;;;;;;;3.60;1.83;;;25.20;1.00;;;;;;5051909;28;20902;-69
2022/06/09 13:28:46;;;;;;;6.37;2.23;;;25.50;1.00;;;;;;5050960;28;20568;-71
2022/06/09 13:31:36;;;;;;;10.10;1.67;;;25.30;1.00;;;;;;5051478;28;20959;-69
2022/06/09 13:34:04;;;;;;;4.63;2.27;;;24.70;1.00;;;;;;5051735;28;20409;-70
2022/06/09 13:36:36;;;;;;;3.83;1.70;;;25.00;1.00;;;;;;5051443;28;20546;-69
2022/06/09 13:39:31;;;;;;;7.40;1.93;;;25.30;1.00;;;;;;5049416;28;20413;-69
2022/06/09 13:42:26;;;;;;;5.07;1.80;;;25.10;1.00;;;;;;5031599;28;20652;-70